createdAt,value
2022-12-28T00:00:22.391Z,1.72
2022-12-28T00:01:22.317Z,1.71
2022-12-28T00:02:22.300Z,1.69
2022-12-28T00:03:22.295Z,1.68
2022-12-28T00:04:22.278Z,1.68
2022-12-28T00:05:22.252Z,1.68
2022-12-28T00:06:22.254Z,1.68
2022-12-28T00:07:22.215Z,1.67
2022-12-28T00:08:22.204Z,1.67
2022-12-28T00:09:22.207Z,1.66
2022-12-28T00:11:08.772Z,1.65
2022-12-28T00:11:28.081Z,1.65
2022-12-28T00:12:22.158Z,1.65
2022-12-28T00:13:22.158Z,1.66
2022-12-28T00:14:22.143Z,1.67
2022-12-28T00:15:22.110Z,1.68
2022-12-28T00:16:22.160Z,1.68
2022-12-28T00:17:22.106Z,1.69
2022-12-28T00:18:22.070Z,1.70
2022-12-28T00:19:22.088Z,1.71
2022-12-28T00:20:22.060Z,1.71
2022-12-28T00:21:22.065Z,1.72
2022-12-28T00:22:22.031Z,1.73
2022-12-28T00:23:22.029Z,1.74
2022-12-28T00:24:22.014Z,1.76
2022-12-28T00:25:21.984Z,1.79
2022-12-28T00:26:21.967Z,1.81
2022-12-28T00:27:21.987Z,1.84
2022-12-28T00:28:21.942Z,1.86
2022-12-28T00:29:21.938Z,1.88
2022-12-28T00:30:21.934Z,1.88
2022-12-28T00:31:21.991Z,1.89
2022-12-28T00:32:21.919Z,1.90
2022-12-28T00:33:21.911Z,1.90
2022-12-28T00:34:21.898Z,1.90
2022-12-28T00:35:21.870Z,1.90
2022-12-28T00:36:21.859Z,1.88
2022-12-28T00:37:21.830Z,1.86
2022-12-28T00:38:21.823Z,1.85
2022-12-28T00:39:21.858Z,1.85
2022-12-28T00:40:24.152Z,1.86
2022-12-28T00:41:21.803Z,1.88
2022-12-28T00:42:21.773Z,1.90
2022-12-28T00:43:21.777Z,1.92
2022-12-28T00:44:21.769Z,1.93
2022-12-28T00:45:21.756Z,1.93
2022-12-28T00:46:21.736Z,1.93
2022-12-28T00:47:21.710Z,1.94
2022-12-28T00:48:21.706Z,1.95
2022-12-28T00:49:21.684Z,1.96
2022-12-28T00:50:21.688Z,1.97
2022-12-28T00:51:21.663Z,1.97
2022-12-28T00:52:21.654Z,1.97
2022-12-28T00:53:21.631Z,1.98
2022-12-28T00:54:21.621Z,1.98
2022-12-28T00:55:21.625Z,1.99
2022-12-28T00:56:21.646Z,2.00
2022-12-28T00:57:21.578Z,2.00
2022-12-28T00:58:21.571Z,2.01
2022-12-28T00:59:21.572Z,2.02
2022-12-28T01:00:21.561Z,2.03
2022-12-28T01:01:21.659Z,2.03
2022-12-28T01:02:21.712Z,2.04
2022-12-28T01:03:21.537Z,2.04
2022-12-28T01:04:21.517Z,2.04
2022-12-28T01:05:21.483Z,2.05
2022-12-28T01:06:21.507Z,2.06
2022-12-28T01:07:21.483Z,2.06
2022-12-28T01:08:21.484Z,2.05
2022-12-28T01:09:21.449Z,2.04
2022-12-28T01:10:21.466Z,2.02
2022-12-28T01:11:21.409Z,2.00
2022-12-28T01:12:21.413Z,1.97
2022-12-28T01:13:21.370Z,1.95
2022-12-28T01:14:21.383Z,1.94
2022-12-28T01:15:21.351Z,1.93
2022-12-28T01:16:21.423Z,1.92
2022-12-28T01:17:21.338Z,1.92
2022-12-28T01:18:21.364Z,1.91
2022-12-28T01:19:21.315Z,1.88
2022-12-28T01:20:21.306Z,1.84
2022-12-28T01:21:21.280Z,1.81
2022-12-28T01:22:21.292Z,1.77
2022-12-28T01:23:21.249Z,1.74
2022-12-28T01:24:21.238Z,1.71
2022-12-28T01:25:21.224Z,1.67
2022-12-28T01:26:21.230Z,1.65
2022-12-28T01:27:21.194Z,1.62
2022-12-28T01:28:21.206Z,1.60
2022-12-28T01:29:21.172Z,1.58
2022-12-28T01:30:21.193Z,1.56
2022-12-28T01:31:21.279Z,1.55
2022-12-28T01:32:21.165Z,1.55
2022-12-28T01:33:21.142Z,1.54
2022-12-28T01:34:21.120Z,1.54
2022-12-28T01:35:21.120Z,1.52
2022-12-28T01:36:21.098Z,1.50
2022-12-28T01:37:21.098Z,1.48
2022-12-28T01:38:21.064Z,1.44
2022-12-28T01:39:21.048Z,1.41
2022-12-28T01:40:21.041Z,1.39
2022-12-28T01:41:21.024Z,1.37
2022-12-28T01:42:21.039Z,1.35
2022-12-28T01:43:29.700Z,1.34
2022-12-28T01:44:21.005Z,1.34
2022-12-28T01:45:20.987Z,1.33
2022-12-28T01:46:20.972Z,1.32
2022-12-28T01:47:20.950Z,1.31
2022-12-28T01:48:20.943Z,1.30
2022-12-28T01:49:20.927Z,1.30
2022-12-28T01:50:20.924Z,1.31
2022-12-28T01:51:20.923Z,1.33
2022-12-28T01:52:20.955Z,1.35
2022-12-28T01:53:20.863Z,1.37
2022-12-28T01:54:20.857Z,1.39
2022-12-28T01:55:20.868Z,1.42
2022-12-28T01:56:20.839Z,1.44
2022-12-28T01:57:20.822Z,1.46
2022-12-28T01:58:20.843Z,1.47
2022-12-28T01:59:20.792Z,1.47
2022-12-28T02:00:20.777Z,1.45
2022-12-28T02:01:20.854Z,1.44
2022-12-28T02:02:20.915Z,1.43
2022-12-28T02:03:20.805Z,1.44
2022-12-28T02:04:20.746Z,1.44
2022-12-28T02:05:20.707Z,1.45
2022-12-28T02:06:20.704Z,1.47
2022-12-28T02:07:20.708Z,1.50
2022-12-28T02:08:20.676Z,1.53
2022-12-28T02:09:20.683Z,1.54
2022-12-28T02:10:43.456Z,1.54
2022-12-28T02:11:20.650Z,1.54
2022-12-28T02:12:20.640Z,1.53
2022-12-28T02:13:20.615Z,1.51
2022-12-28T02:14:20.602Z,1.48
2022-12-28T02:15:23.215Z,1.45
2022-12-28T02:16:20.603Z,1.41
2022-12-28T02:17:20.577Z,1.38
2022-12-28T02:18:20.543Z,1.35
2022-12-28T02:19:20.567Z,1.32
2022-12-28T02:20:20.537Z,1.30
2022-12-28T02:21:20.529Z,1.29
2022-12-28T02:22:20.531Z,1.30
2022-12-28T02:23:20.511Z,1.31
2022-12-28T02:24:20.467Z,1.31
2022-12-28T02:25:20.461Z,1.32
2022-12-28T02:26:20.464Z,1.31
2022-12-28T02:27:20.444Z,1.29
2022-12-28T02:28:20.434Z,1.27
2022-12-28T02:29:20.440Z,1.25
2022-12-28T02:30:20.403Z,1.23
2022-12-28T02:31:20.392Z,1.20
2022-12-28T02:32:20.408Z,1.18
2022-12-28T02:33:20.366Z,1.17
2022-12-28T02:34:20.381Z,1.15
2022-12-28T02:35:20.342Z,1.14
2022-12-28T02:36:20.330Z,1.13
2022-12-28T02:37:20.309Z,1.11
2022-12-28T02:38:20.356Z,1.09
2022-12-28T02:39:20.284Z,1.06
2022-12-28T02:40:20.269Z,1.04
2022-12-28T02:41:20.270Z,1.02
2022-12-28T02:42:20.280Z,1.00
2022-12-28T02:43:20.228Z,0.99
2022-12-28T02:44:20.258Z,0.98
2022-12-28T02:45:20.217Z,0.97
2022-12-28T02:46:20.343Z,0.97
2022-12-28T02:47:20.208Z,0.97
2022-12-28T02:48:20.188Z,0.96
2022-12-28T02:49:20.183Z,0.95
2022-12-28T02:50:20.149Z,0.94
2022-12-28T02:51:20.141Z,0.94
2022-12-28T02:52:20.127Z,0.94
2022-12-28T02:53:20.110Z,0.93
2022-12-28T02:54:20.095Z,0.92
2022-12-28T02:55:20.106Z,0.92
2022-12-28T02:56:20.077Z,0.91
2022-12-28T02:57:20.068Z,0.91
2022-12-28T02:58:20.071Z,0.91
2022-12-28T02:59:20.058Z,0.91
2022-12-28T03:00:20.063Z,0.92
2022-12-28T03:01:20.120Z,0.93
2022-12-28T03:02:20.282Z,0.94
2022-12-28T03:03:20.071Z,0.96
2022-12-28T03:04:19.971Z,0.98
2022-12-28T03:05:19.979Z,1.00
2022-12-28T03:06:20.867Z,1.02
2022-12-28T03:07:19.956Z,1.03
2022-12-28T03:08:20.094Z,1.03
2022-12-28T03:09:19.943Z,1.04
2022-12-28T03:10:19.916Z,1.04
2022-12-28T03:11:19.875Z,1.03
2022-12-28T03:12:19.870Z,1.02
2022-12-28T03:13:19.879Z,1.01
2022-12-28T03:14:19.839Z,1.01
2022-12-28T03:15:19.834Z,1.02
2022-12-28T03:16:19.880Z,1.04
2022-12-28T03:17:19.830Z,1.05
2022-12-28T03:18:19.791Z,1.07
2022-12-28T03:19:19.790Z,1.08
2022-12-28T03:20:19.835Z,1.09
2022-12-28T03:21:19.756Z,1.10
2022-12-28T03:22:19.735Z,1.11
2022-12-28T03:23:19.731Z,1.12
2022-12-28T03:24:19.713Z,1.13
2022-12-28T03:25:19.694Z,1.14
2022-12-28T03:26:19.703Z,1.16
2022-12-28T03:27:19.690Z,1.17
2022-12-28T03:28:19.682Z,1.17
2022-12-28T03:29:19.647Z,1.16
2022-12-28T03:30:19.657Z,1.15
2022-12-28T03:31:19.716Z,1.13
2022-12-28T03:32:19.620Z,1.12
2022-12-28T03:33:19.617Z,1.11
2022-12-28T03:34:19.595Z,1.10
2022-12-28T03:35:19.601Z,1.10
2022-12-28T03:36:19.601Z,1.10
2022-12-28T03:37:19.570Z,1.09
2022-12-28T03:38:19.579Z,1.09
2022-12-28T03:39:19.526Z,1.09
2022-12-28T03:40:19.541Z,1.09
2022-12-28T03:41:19.512Z,1.10
2022-12-28T03:42:19.500Z,1.11
2022-12-28T03:43:19.509Z,1.12
2022-12-28T03:44:19.478Z,1.12
2022-12-28T03:45:46.340Z,1.12
2022-12-28T03:46:19.536Z,1.11
2022-12-28T03:47:19.430Z,1.11
2022-12-28T03:48:19.417Z,1.11
2022-12-28T03:49:19.413Z,1.11
2022-12-28T03:50:19.396Z,1.10
2022-12-28T03:51:19.394Z,1.10
2022-12-28T03:52:19.378Z,1.10
2022-12-28T03:53:19.357Z,1.12
2022-12-28T03:54:19.337Z,1.15
2022-12-28T03:55:19.339Z,1.17
2022-12-28T03:56:19.325Z,1.18
2022-12-28T03:57:19.336Z,1.18
2022-12-28T03:58:19.285Z,1.18
2022-12-28T03:59:19.275Z,1.17
2022-12-28T04:00:19.274Z,1.16
2022-12-28T04:01:19.364Z,1.15
2022-12-28T04:02:19.572Z,1.15
2022-12-28T04:03:19.288Z,1.15
2022-12-28T04:04:19.339Z,1.15
2022-12-28T04:05:19.260Z,1.15
2022-12-28T04:06:19.228Z,1.16
2022-12-28T04:07:19.188Z,1.18
2022-12-28T04:08:19.209Z,1.19
2022-12-28T04:09:19.148Z,1.20
2022-12-28T04:10:19.161Z,1.21
2022-12-28T04:11:19.129Z,1.21
2022-12-28T04:12:19.132Z,1.22
2022-12-28T04:13:19.122Z,1.23
2022-12-28T04:14:19.108Z,1.24
2022-12-28T04:15:19.077Z,1.25
2022-12-28T04:16:19.136Z,1.26
2022-12-28T04:17:19.054Z,1.27
2022-12-28T04:18:19.078Z,1.28
2022-12-28T04:19:19.029Z,1.30
2022-12-28T04:20:19.024Z,1.31
2022-12-28T04:21:19.005Z,1.34
2022-12-28T04:22:19.018Z,1.36
2022-12-28T04:23:19.015Z,1.39
2022-12-28T04:24:18.979Z,1.42
2022-12-28T04:25:18.961Z,1.43
2022-12-28T04:26:18.947Z,1.44
2022-12-28T04:27:18.919Z,1.44
2022-12-28T04:28:18.952Z,1.43
2022-12-28T04:29:18.892Z,1.42
2022-12-28T04:30:19.048Z,1.41
2022-12-28T04:31:18.907Z,1.40
2022-12-28T04:32:18.861Z,1.40
2022-12-28T04:33:18.887Z,1.40
2022-12-28T04:34:18.885Z,1.40
2022-12-28T04:35:18.818Z,1.40
2022-12-28T04:36:18.813Z,1.40
2022-12-28T04:37:18.807Z,1.41
2022-12-28T04:38:18.790Z,1.42
2022-12-28T04:39:18.801Z,1.44
2022-12-28T04:40:18.768Z,1.44
2022-12-28T04:41:18.804Z,1.45
2022-12-28T04:42:18.740Z,1.45
2022-12-28T04:43:18.731Z,1.44
2022-12-28T04:44:18.782Z,1.43
2022-12-28T04:45:22.195Z,1.43
2022-12-28T04:46:18.757Z,1.43
2022-12-28T04:47:18.683Z,1.42
2022-12-28T04:48:18.665Z,1.42
2022-12-28T04:49:18.660Z,1.42
2022-12-28T04:50:18.628Z,1.42
2022-12-28T04:51:18.614Z,1.42
2022-12-28T04:52:18.641Z,1.43
2022-12-28T04:53:18.608Z,1.43
2022-12-28T04:54:18.613Z,1.44
2022-12-28T04:55:32.608Z,1.44
2022-12-28T04:56:18.569Z,1.44
2022-12-28T04:57:18.536Z,1.43
2022-12-28T04:58:18.532Z,1.43
2022-12-28T04:59:18.519Z,1.42
2022-12-28T05:00:18.521Z,1.41
2022-12-28T05:01:18.639Z,1.40
2022-12-28T05:02:18.579Z,1.39
2022-12-28T05:03:18.458Z,1.38
2022-12-28T05:04:18.452Z,1.37
2022-12-28T05:05:18.469Z,1.36
2022-12-28T05:06:18.448Z,1.35
2022-12-28T05:07:18.413Z,1.34
2022-12-28T05:08:18.409Z,1.33
2022-12-28T05:09:18.385Z,1.34
2022-12-28T05:10:18.379Z,1.35
2022-12-28T05:11:18.363Z,1.35
2022-12-28T05:12:18.355Z,1.35
2022-12-28T05:13:18.355Z,1.35
2022-12-28T05:14:18.350Z,1.34
2022-12-28T05:15:18.319Z,1.35
2022-12-28T05:16:18.355Z,1.36
2022-12-28T05:17:18.288Z,1.37
2022-12-28T05:18:18.273Z,1.38
2022-12-28T05:19:18.272Z,1.39
2022-12-28T05:20:18.266Z,1.40
2022-12-28T05:21:18.242Z,1.41
2022-12-28T05:22:18.252Z,1.42
2022-12-28T05:23:18.215Z,1.43
2022-12-28T05:24:18.203Z,1.44
2022-12-28T05:25:18.190Z,1.44
2022-12-28T05:26:18.172Z,1.45
2022-12-28T05:27:18.161Z,1.44
2022-12-28T05:28:18.154Z,1.44
2022-12-28T05:29:18.141Z,1.43
2022-12-28T05:30:18.142Z,1.42
2022-12-28T05:31:18.150Z,1.41
2022-12-28T05:32:18.108Z,1.40
2022-12-28T05:33:18.084Z,1.40
2022-12-28T05:34:18.097Z,1.40
2022-12-28T05:35:18.065Z,1.40
2022-12-28T05:36:18.093Z,1.41
2022-12-28T05:37:21.989Z,1.41
2022-12-28T05:38:18.044Z,1.41
2022-12-28T05:39:18.062Z,1.42
2022-12-28T05:40:18.004Z,1.43
2022-12-28T05:41:18.028Z,1.44
2022-12-28T05:42:17.967Z,1.45
2022-12-28T05:43:17.955Z,1.46
2022-12-28T05:44:17.966Z,1.48
2022-12-28T05:45:17.968Z,1.51
2022-12-28T05:46:18.023Z,1.53
2022-12-28T05:47:17.931Z,1.55
2022-12-28T05:48:17.888Z,1.56
2022-12-28T05:49:17.919Z,1.57
2022-12-28T05:50:17.870Z,1.58
2022-12-28T05:51:17.926Z,1.59
2022-12-28T05:52:17.847Z,1.60
2022-12-28T05:53:17.833Z,1.61
2022-12-28T05:54:17.822Z,1.62
2022-12-28T05:55:17.831Z,1.63
2022-12-28T05:56:17.800Z,1.64
2022-12-28T05:57:17.802Z,1.64
2022-12-28T05:58:17.790Z,1.64
2022-12-28T05:59:17.760Z,1.65
2022-12-28T06:00:17.746Z,1.66
2022-12-28T06:01:17.769Z,1.67
2022-12-28T06:02:23.050Z,1.68
2022-12-28T06:03:17.882Z,1.68
2022-12-28T06:04:17.766Z,1.68
2022-12-28T06:05:17.681Z,1.68
2022-12-28T06:06:17.673Z,1.69
2022-12-28T06:07:17.691Z,1.68
2022-12-28T06:08:22.567Z,1.68
2022-12-28T06:09:17.644Z,1.68
2022-12-28T06:10:17.622Z,1.68
2022-12-28T06:11:17.663Z,1.69
2022-12-28T06:12:17.622Z,1.71
2022-12-28T06:13:17.604Z,1.71
2022-12-28T06:14:17.560Z,1.72
2022-12-28T06:15:17.561Z,1.72
2022-12-28T06:16:17.563Z,1.72
2022-12-28T06:17:17.560Z,1.72
2022-12-28T06:18:17.508Z,1.71
2022-12-28T06:19:17.546Z,1.71
2022-12-28T06:20:17.483Z,1.71
2022-12-28T06:21:17.487Z,1.70
2022-12-28T06:22:17.471Z,1.70
2022-12-28T06:23:17.456Z,1.70
2022-12-28T06:24:17.447Z,1.70
2022-12-28T06:25:17.440Z,1.70
2022-12-28T06:26:17.414Z,1.70
2022-12-28T06:27:17.427Z,1.71
2022-12-28T06:28:17.376Z,1.72
2022-12-28T06:29:17.367Z,1.73
2022-12-28T06:30:17.362Z,1.75
2022-12-28T06:31:17.391Z,1.76
2022-12-28T06:32:17.345Z,1.78
2022-12-28T06:33:17.323Z,1.81
2022-12-28T06:34:17.318Z,1.83
2022-12-28T06:35:17.291Z,1.86
2022-12-28T06:36:20.230Z,1.88
2022-12-28T06:37:17.274Z,1.89
2022-12-28T06:38:17.270Z,1.90
2022-12-28T06:39:17.246Z,1.90
2022-12-28T06:40:17.224Z,1.92
2022-12-28T06:41:17.238Z,1.93
2022-12-28T06:42:17.218Z,1.94
2022-12-28T06:43:17.196Z,1.94
2022-12-28T06:44:17.172Z,1.95
2022-12-28T06:45:17.167Z,1.96
2022-12-28T06:46:17.246Z,1.97
2022-12-28T06:47:17.158Z,1.99
2022-12-28T06:48:17.159Z,2.00
2022-12-28T06:49:17.120Z,2.02
2022-12-28T06:50:17.105Z,2.03
2022-12-28T06:51:17.102Z,2.03
2022-12-28T06:52:17.069Z,2.04
2022-12-28T06:53:17.077Z,2.04
2022-12-28T06:54:17.051Z,2.04
2022-12-28T06:55:17.038Z,2.05
2022-12-28T06:56:17.028Z,2.06
2022-12-28T06:57:17.009Z,2.07
2022-12-28T06:58:17.012Z,2.07
2022-12-28T06:59:17.001Z,2.08
2022-12-28T07:00:16.972Z,2.09
2022-12-28T07:01:17.232Z,2.09
2022-12-28T07:02:17.213Z,2.10
2022-12-28T07:03:16.982Z,2.10
2022-12-28T07:04:16.936Z,2.10
2022-12-28T07:05:16.918Z,2.11
2022-12-28T07:06:16.912Z,2.12
2022-12-28T07:07:16.888Z,2.12
2022-12-28T07:08:16.871Z,2.11
2022-12-28T07:09:16.885Z,2.09
2022-12-28T07:10:16.870Z,2.06
2022-12-28T07:11:16.837Z,2.04
2022-12-28T07:12:16.827Z,2.01
2022-12-28T07:13:17.316Z,1.99
2022-12-28T07:14:16.810Z,1.96
2022-12-28T07:15:16.789Z,1.94
2022-12-28T07:16:16.814Z,1.91
2022-12-28T07:17:16.768Z,1.89
2022-12-28T07:18:16.746Z,1.88
2022-12-28T07:19:16.769Z,1.87
2022-12-28T07:20:16.720Z,1.86
2022-12-28T07:21:16.706Z,1.86
2022-12-28T07:22:16.696Z,1.86
2022-12-28T07:23:16.685Z,1.86
2022-12-28T07:24:16.683Z,1.87
2022-12-28T07:25:16.658Z,1.87
2022-12-28T07:26:16.657Z,1.88
2022-12-28T07:27:16.636Z,1.88
2022-12-28T07:28:16.621Z,1.89
2022-12-28T07:29:16.624Z,1.90
2022-12-28T07:30:16.594Z,1.91
2022-12-28T07:31:16.754Z,1.92
2022-12-28T07:32:16.579Z,1.93
2022-12-28T07:33:16.559Z,1.95
2022-12-28T07:34:16.634Z,1.96
2022-12-28T07:35:16.533Z,1.98
2022-12-28T07:36:16.528Z,2.00
2022-12-28T07:37:16.509Z,2.02
2022-12-28T07:38:21.168Z,2.04
2022-12-28T07:39:16.503Z,2.06
2022-12-28T07:40:16.472Z,2.07
2022-12-28T07:41:16.464Z,2.09
2022-12-28T07:42:16.449Z,2.10
2022-12-28T07:43:16.452Z,2.11
2022-12-28T07:44:16.421Z,2.12
2022-12-28T07:45:16.411Z,2.14
2022-12-28T07:46:16.437Z,2.15
2022-12-28T07:47:16.384Z,2.16
2022-12-28T07:48:16.381Z,2.17
2022-12-28T07:49:16.366Z,2.18
2022-12-28T07:50:16.364Z,2.18
2022-12-28T07:51:16.335Z,2.19
2022-12-28T07:52:16.352Z,2.19
2022-12-28T07:53:21.908Z,2.20
2022-12-28T07:54:16.306Z,2.21
2022-12-28T07:55:16.292Z,2.22
2022-12-28T07:56:16.266Z,2.23
2022-12-28T07:57:16.275Z,2.25
2022-12-28T07:58:16.238Z,2.27
2022-12-28T07:59:16.237Z,2.29
2022-12-28T08:00:16.242Z,2.30
2022-12-28T08:01:17.393Z,2.32
2022-12-28T08:02:16.397Z,2.34
2022-12-28T08:03:16.200Z,2.35
2022-12-28T08:04:16.173Z,2.37
2022-12-28T08:05:16.173Z,2.38
2022-12-28T08:06:16.152Z,2.39
2022-12-28T08:07:16.131Z,2.40
2022-12-28T08:08:16.133Z,2.41
2022-12-28T08:09:16.102Z,2.41
2022-12-28T08:10:16.096Z,2.41
2022-12-28T08:11:16.087Z,2.41
2022-12-28T08:12:16.077Z,2.41
2022-12-28T08:13:16.055Z,2.42
2022-12-28T08:14:16.036Z,2.42
2022-12-28T08:15:16.026Z,2.43
2022-12-28T08:16:16.073Z,2.44
2022-12-28T08:17:20.810Z,2.45
2022-12-28T08:18:16.001Z,2.46
2022-12-28T08:19:15.979Z,2.49
2022-12-28T08:20:15.966Z,2.51
2022-12-28T08:21:15.970Z,2.53
2022-12-28T08:22:15.951Z,2.56
2022-12-28T08:23:15.938Z,2.59
2022-12-28T08:24:15.938Z,2.61
2022-12-28T08:25:15.914Z,2.64
2022-12-28T08:26:15.898Z,2.67
2022-12-28T08:27:15.912Z,2.70
2022-12-28T08:28:15.910Z,2.72
2022-12-28T08:29:15.855Z,2.74
2022-12-28T08:30:15.841Z,2.77
2022-12-28T08:31:15.905Z,2.80
2022-12-28T08:32:15.847Z,2.82
2022-12-28T08:33:15.808Z,2.84
2022-12-28T08:34:15.801Z,2.86
2022-12-28T08:35:15.798Z,2.87
2022-12-28T08:36:15.798Z,2.89
2022-12-28T08:37:15.787Z,2.90
2022-12-28T08:38:15.749Z,2.92
2022-12-28T08:39:15.744Z,2.93
2022-12-28T08:40:15.716Z,2.94
2022-12-28T08:41:15.723Z,2.95
2022-12-28T08:42:15.700Z,2.97
2022-12-28T08:43:15.694Z,2.98
2022-12-28T08:44:15.664Z,3.00
2022-12-28T08:45:15.668Z,3.01
2022-12-28T08:46:15.852Z,3.03
2022-12-28T08:47:15.692Z,3.04
2022-12-28T08:48:15.639Z,3.06
2022-12-28T08:49:15.614Z,3.07
2022-12-28T08:50:19.808Z,3.08
2022-12-28T08:51:15.598Z,3.09
2022-12-28T08:52:15.594Z,3.11
2022-12-28T08:53:15.571Z,3.12
2022-12-28T08:54:15.541Z,3.13
2022-12-28T08:55:15.533Z,3.15
2022-12-28T08:56:15.526Z,3.16
2022-12-28T08:57:15.516Z,3.18
2022-12-28T08:58:15.513Z,3.19
2022-12-28T08:59:15.506Z,3.20
2022-12-28T09:00:15.470Z,3.21
2022-12-28T09:01:15.568Z,3.22
2022-12-28T09:02:15.550Z,3.23
2022-12-28T09:03:15.593Z,3.24
2022-12-28T09:04:15.417Z,3.25
2022-12-28T09:05:15.423Z,3.25
2022-12-28T09:06:15.397Z,3.25
2022-12-28T09:07:15.400Z,3.25
2022-12-28T09:08:15.389Z,3.25
2022-12-28T09:09:15.359Z,3.24
2022-12-28T09:10:15.397Z,3.24
2022-12-28T09:11:15.332Z,3.24
2022-12-28T09:12:15.325Z,3.24
2022-12-28T09:13:15.306Z,3.25
2022-12-28T09:14:24.522Z,3.27
2022-12-28T09:15:15.286Z,3.28
2022-12-28T09:16:15.333Z,3.30
2022-12-28T09:17:15.276Z,3.32
2022-12-28T09:18:15.241Z,3.34
2022-12-28T09:19:15.254Z,3.35
2022-12-28T09:20:15.227Z,3.37
2022-12-28T09:21:15.203Z,3.38
2022-12-28T09:22:15.220Z,3.40
2022-12-28T09:23:15.174Z,3.42
2022-12-28T09:24:15.178Z,3.43
2022-12-28T09:25:15.153Z,3.45
2022-12-28T09:26:15.159Z,3.47
2022-12-28T09:27:15.141Z,3.49
2022-12-28T09:28:15.122Z,3.51
2022-12-28T09:29:15.102Z,3.53
2022-12-28T09:30:15.102Z,3.55
2022-12-28T09:31:15.120Z,3.58
2022-12-28T09:32:15.084Z,3.60
2022-12-28T09:33:15.063Z,3.62
2022-12-28T09:35:15.037Z,3.66
2022-12-28T09:36:15.037Z,3.68
2022-12-28T09:37:15.024Z,3.69
2022-12-28T09:38:14.996Z,3.71
2022-12-28T09:39:15.050Z,3.72
2022-12-28T09:40:14.983Z,3.73
2022-12-28T09:41:15.034Z,3.75
2022-12-28T09:42:14.966Z,3.77
2022-12-28T09:43:14.972Z,3.78
2022-12-28T09:44:14.919Z,3.80
2022-12-28T09:45:14.908Z,3.85
2022-12-28T09:46:14.958Z,3.94
2022-12-28T09:47:14.929Z,4.05
2022-12-28T09:48:14.880Z,4.18
2022-12-28T09:49:14.878Z,4.31
2022-12-28T09:50:14.851Z,4.44
2022-12-28T09:51:14.843Z,4.56
2022-12-28T09:52:14.837Z,4.66
2022-12-28T09:53:14.857Z,4.72
2022-12-28T09:54:14.805Z,4.73
2022-12-28T09:55:14.832Z,4.69
2022-12-28T09:56:14.771Z,4.62
2022-12-28T09:57:14.775Z,4.55
2022-12-28T09:58:14.761Z,4.48
2022-12-28T09:59:14.730Z,4.42
2022-12-28T10:00:14.730Z,4.37
2022-12-28T10:01:14.867Z,4.33
2022-12-28T10:02:14.726Z,4.30
2022-12-28T10:03:14.759Z,4.28
2022-12-28T10:04:14.669Z,4.27
2022-12-28T10:05:14.657Z,4.27
2022-12-28T10:06:14.650Z,4.28
2022-12-28T10:07:14.628Z,4.29
2022-12-28T10:08:14.633Z,4.30
2022-12-28T10:09:14.606Z,4.32
2022-12-28T10:10:14.599Z,4.33
2022-12-28T10:11:14.579Z,4.35
2022-12-28T10:12:14.574Z,4.38
2022-12-28T10:13:45.467Z,4.40
2022-12-28T10:14:14.546Z,4.43
2022-12-28T10:15:14.535Z,4.46
2022-12-28T10:16:14.604Z,4.48
2022-12-28T10:17:14.511Z,4.51
2022-12-28T10:18:14.521Z,4.53
2022-12-28T10:19:14.482Z,4.56
2022-12-28T10:20:14.460Z,4.58
2022-12-28T10:21:14.447Z,4.61
2022-12-28T10:22:14.439Z,4.63
2022-12-28T10:23:14.423Z,4.65
2022-12-28T10:24:31.480Z,4.66
2022-12-28T10:25:14.399Z,4.68
2022-12-28T10:26:14.384Z,4.70
2022-12-28T10:27:14.358Z,4.72
2022-12-28T10:28:14.381Z,4.73
2022-12-28T10:29:14.342Z,4.75
2022-12-28T10:30:14.350Z,4.76
2022-12-28T10:31:14.385Z,4.77
2022-12-28T10:32:14.309Z,4.79
2022-12-28T10:33:14.321Z,4.80
2022-12-28T10:34:14.299Z,4.81
2022-12-28T10:35:14.272Z,4.82
2022-12-28T10:36:14.254Z,4.83
2022-12-28T10:37:15.444Z,4.84
2022-12-28T10:38:14.231Z,4.84
2022-12-28T10:39:14.219Z,4.85
2022-12-28T10:40:14.219Z,4.86
2022-12-28T10:41:14.184Z,4.87
2022-12-28T10:42:14.170Z,4.88
2022-12-28T10:43:14.156Z,4.89
2022-12-28T10:44:38.493Z,4.90
2022-12-28T10:45:14.139Z,4.91
2022-12-28T10:46:14.216Z,4.93
2022-12-28T10:47:14.110Z,4.94
2022-12-28T10:48:14.087Z,4.95
2022-12-28T10:49:15.788Z,4.96
2022-12-28T10:51:14.053Z,4.98
2022-12-28T10:52:14.034Z,4.99
2022-12-28T10:53:14.019Z,5.01
2022-12-28T10:54:14.034Z,5.03
2022-12-28T10:55:13.990Z,5.04
2022-12-28T10:56:13.994Z,5.05
2022-12-28T10:57:13.979Z,5.06
2022-12-28T10:58:31.247Z,5.08
2022-12-28T10:59:13.957Z,5.09
2022-12-28T11:00:13.980Z,5.11
2022-12-28T11:01:14.067Z,5.13
2022-12-28T11:02:14.047Z,5.15
2022-12-28T11:03:14.025Z,5.17
2022-12-28T11:04:13.907Z,5.18
2022-12-28T11:05:13.904Z,5.20
2022-12-28T11:06:13.863Z,5.21
2022-12-28T11:07:13.851Z,5.21
2022-12-28T11:08:13.846Z,5.22
2022-12-28T11:09:13.814Z,5.23
2022-12-28T11:10:13.823Z,5.24
2022-12-28T11:11:13.790Z,5.25
2022-12-28T11:12:13.789Z,5.26
2022-12-28T11:13:18.381Z,5.27
2022-12-28T11:14:13.770Z,5.28
2022-12-28T11:15:13.744Z,5.29
2022-12-28T11:16:13.828Z,5.31
2022-12-28T11:17:13.712Z,5.33
2022-12-28T11:18:13.709Z,5.35
2022-12-28T11:19:13.690Z,5.37
2022-12-28T11:20:13.684Z,5.40
2022-12-28T11:21:13.707Z,5.42
2022-12-28T11:22:13.669Z,5.44
2022-12-28T11:23:13.633Z,5.46
2022-12-28T11:24:13.641Z,5.49
2022-12-28T11:25:13.621Z,5.51
2022-12-28T11:26:13.607Z,5.54
2022-12-28T11:27:13.611Z,5.57
2022-12-28T11:28:13.587Z,5.60
2022-12-28T11:29:13.557Z,5.62
2022-12-28T11:30:17.292Z,5.65
2022-12-28T11:31:13.582Z,5.68
2022-12-28T11:32:13.523Z,5.71
2022-12-28T11:33:13.529Z,5.73
2022-12-28T11:34:13.511Z,5.76
2022-12-28T11:35:13.491Z,5.79
2022-12-28T11:36:13.491Z,5.81
2022-12-28T11:37:13.471Z,5.83
2022-12-28T11:38:13.457Z,5.86
2022-12-28T11:39:13.438Z,5.88
2022-12-28T11:40:13.434Z,5.91
2022-12-28T11:41:13.425Z,5.94
2022-12-28T11:42:39.068Z,5.97
2022-12-28T11:43:13.387Z,6.00
2022-12-28T11:44:13.377Z,6.02
2022-12-28T11:45:13.379Z,6.03
2022-12-28T11:46:13.391Z,6.05
2022-12-28T11:47:13.385Z,6.07
2022-12-28T11:48:13.332Z,6.09
2022-12-28T11:49:13.316Z,6.11
2022-12-28T11:50:13.304Z,6.13
2022-12-28T11:51:13.298Z,6.15
2022-12-28T11:52:13.286Z,6.17
2022-12-28T11:53:14.152Z,6.19
2022-12-28T11:54:13.258Z,6.22
2022-12-28T11:55:13.240Z,6.26
2022-12-28T11:56:13.240Z,6.29
2022-12-28T11:57:13.228Z,6.33
2022-12-28T11:58:13.193Z,6.36
2022-12-28T11:59:13.213Z,6.39
2022-12-28T12:00:17.177Z,6.41
2022-12-28T12:01:13.213Z,6.43
2022-12-28T12:02:13.214Z,6.45
2022-12-28T12:03:13.163Z,6.49
2022-12-28T12:04:13.128Z,6.53
2022-12-28T12:05:13.102Z,6.57
2022-12-28T12:06:13.108Z,6.60
2022-12-28T12:07:13.087Z,6.64
2022-12-28T12:08:13.072Z,6.67
2022-12-28T12:09:13.065Z,6.70
2022-12-28T12:10:13.048Z,6.73
2022-12-28T12:11:13.033Z,6.77
2022-12-28T12:12:17.300Z,6.82
2022-12-28T12:13:12.995Z,6.86
2022-12-28T12:14:12.991Z,6.92
2022-12-28T12:15:12.975Z,6.98
2022-12-28T12:16:12.967Z,7.04
2022-12-28T12:17:12.962Z,7.08
2022-12-28T12:18:13.009Z,7.12
2022-12-28T12:19:12.937Z,7.15
2022-12-28T12:20:12.991Z,7.18
2022-12-28T12:21:16.059Z,7.20
2022-12-28T12:22:12.900Z,7.23
2022-12-28T12:23:12.889Z,7.26
2022-12-28T12:24:12.887Z,7.29
2022-12-28T12:25:12.846Z,7.34
2022-12-28T12:26:12.835Z,7.40
2022-12-28T12:27:13.707Z,7.47
2022-12-28T12:28:12.856Z,7.55
2022-12-28T12:29:12.800Z,7.62
2022-12-28T12:30:12.949Z,7.68
2022-12-28T12:31:12.845Z,7.73
2022-12-28T12:32:12.767Z,7.76
2022-12-28T12:33:12.755Z,7.80
2022-12-28T12:34:17.711Z,7.84
2022-12-28T12:35:12.723Z,7.87
2022-12-28T12:36:13.731Z,7.89
2022-12-28T12:37:12.693Z,7.90
2022-12-28T12:38:12.700Z,7.91
2022-12-28T12:39:12.687Z,7.92
2022-12-28T12:40:12.669Z,7.93
2022-12-28T12:41:12.652Z,7.96
2022-12-28T12:42:12.633Z,7.99
2022-12-28T12:43:12.645Z,8.02
2022-12-28T12:44:12.612Z,8.04
2022-12-28T12:45:12.603Z,8.07
2022-12-28T12:46:12.608Z,8.10
2022-12-28T12:47:12.581Z,8.13
2022-12-28T12:48:12.572Z,8.17
2022-12-28T12:49:12.555Z,8.22
2022-12-28T12:50:12.660Z,8.27
2022-12-28T12:51:12.532Z,8.33
2022-12-28T12:52:12.515Z,8.38
2022-12-28T12:53:12.507Z,8.44
2022-12-28T12:54:12.503Z,8.49
2022-12-28T12:55:12.488Z,8.53
2022-12-28T12:56:12.457Z,8.57
2022-12-28T12:57:12.442Z,8.60
2022-12-28T12:58:12.437Z,8.64
2022-12-28T12:59:12.420Z,8.66
2022-12-28T13:00:12.506Z,8.68
2022-12-28T13:01:12.532Z,8.69
2022-12-28T13:02:12.627Z,8.69
2022-12-28T13:03:12.386Z,8.70
2022-12-28T13:04:12.381Z,8.72
2022-12-28T13:05:12.346Z,8.74
2022-12-28T13:06:12.348Z,8.77
2022-12-28T13:07:12.314Z,8.81
2022-12-28T13:08:12.312Z,8.85
2022-12-28T13:09:12.310Z,8.89
2022-12-28T13:10:12.294Z,8.93
2022-12-28T13:11:12.281Z,8.96
2022-12-28T13:12:12.276Z,8.98
2022-12-28T13:13:12.252Z,9.00
2022-12-28T13:14:12.290Z,9.01
2022-12-28T13:15:13.055Z,9.03
2022-12-28T13:16:12.270Z,9.05
2022-12-28T13:17:12.210Z,9.07
2022-12-28T13:18:43.635Z,9.09
2022-12-28T13:19:12.204Z,9.10
2022-12-28T13:20:12.237Z,9.11